createdAt,value
2023-12-27T00:01:07.655Z,8.34
2023-12-27T00:03:49.613Z,8.29
2023-12-27T00:06:19.826Z,8.28
2023-12-27T00:08:48.613Z,8.36
2023-12-27T00:11:19.241Z,8.56
2023-12-27T00:13:47.944Z,8.75
2023-12-27T00:16:16.241Z,8.88
2023-12-27T00:18:44.696Z,8.99
2023-12-27T00:21:14.695Z,9.10
2023-12-27T00:23:43.204Z,9.19
2023-12-27T00:26:11.937Z,9.29
2023-12-27T00:28:41.317Z,9.44
2023-12-27T00:31:09.848Z,9.53
2023-12-27T00:33:38.738Z,9.61
2023-12-27T00:36:09.251Z,9.69
2023-12-27T00:38:39.296Z,9.81
2023-12-27T00:41:08.717Z,9.90
2023-12-27T00:43:37.011Z,9.95
2023-12-27T00:46:07.790Z,9.98
2023-12-27T00:48:36.880Z,10.04
2023-12-27T00:51:06.911Z,10.16
2023-12-27T00:53:35.297Z,10.21
2023-12-27T00:56:03.637Z,10.27
2023-12-27T00:58:32.077Z,10.35
2023-12-27T01:01:00.464Z,10.41
2023-12-27T01:03:29.068Z,10.48
2023-12-27T01:05:57.833Z,10.53
2023-12-27T01:08:26.601Z,10.57
2023-12-27T01:10:55.231Z,10.59
2023-12-27T01:13:23.557Z,10.56
2023-12-27T01:15:52.002Z,10.51
2023-12-27T01:18:21.005Z,10.43
2023-12-27T01:20:50.330Z,10.41
2023-12-27T01:23:18.716Z,10.38
2023-12-27T01:25:47.093Z,10.28
2023-12-27T01:28:15.984Z,10.22
2023-12-27T01:30:44.589Z,10.16
2023-12-27T01:33:13.580Z,10.07
2023-12-27T01:35:42.049Z,9.97
2023-12-27T01:38:10.363Z,9.87
2023-12-27T01:40:38.697Z,9.79
2023-12-27T01:43:07.146Z,9.70
2023-12-27T01:45:35.579Z,9.65
2023-12-27T01:48:05.245Z,9.62
2023-12-27T01:50:33.980Z,9.59
2023-12-27T01:53:03.682Z,9.58
2023-12-27T01:55:33.610Z,9.56
2023-12-27T01:58:03.300Z,9.51
2023-12-27T02:00:31.859Z,9.46
2023-12-27T02:03:00.552Z,9.38
2023-12-27T02:05:29.309Z,9.32
2023-12-27T02:07:58.550Z,9.26
2023-12-27T02:10:28.680Z,9.20
2023-12-27T02:12:57.050Z,9.10
2023-12-27T02:15:25.490Z,9.01
2023-12-27T02:17:54.272Z,8.91
2023-12-27T02:20:23.782Z,8.81
2023-12-27T02:22:54.560Z,8.68
2023-12-27T02:25:23.663Z,8.59
2023-12-27T02:27:52.032Z,8.51
2023-12-27T02:30:22.765Z,8.45
2023-12-27T02:32:52.903Z,8.36
2023-12-27T02:35:21.792Z,8.22
2023-12-27T02:37:50.301Z,8.13
2023-12-27T02:40:18.863Z,8.05
2023-12-27T02:42:48.243Z,7.95
2023-12-27T02:45:16.890Z,7.93
2023-12-27T02:47:45.928Z,7.97
2023-12-27T02:50:14.721Z,7.96
2023-12-27T02:52:43.211Z,7.93
2023-12-27T02:55:11.892Z,7.90
2023-12-27T02:57:40.457Z,7.86
2023-12-27T03:00:10.100Z,7.84
2023-12-27T03:02:38.583Z,7.81
2023-12-27T03:05:07.567Z,7.76
2023-12-27T03:07:35.879Z,7.67
2023-12-27T03:10:05.274Z,7.59
2023-12-27T03:12:34.333Z,7.50
2023-12-27T03:15:02.806Z,7.43
2023-12-27T03:17:31.501Z,7.39
2023-12-27T03:20:00.085Z,7.36
2023-12-27T03:22:29.195Z,7.30
2023-12-27T03:24:57.746Z,7.22
2023-12-27T03:27:26.164Z,7.14
2023-12-27T03:29:54.886Z,7.10
2023-12-27T03:32:25.885Z,7.07
2023-12-27T03:34:54.238Z,7.07
2023-12-27T03:37:22.633Z,7.08
2023-12-27T03:39:52.837Z,7.09
2023-12-27T03:42:21.480Z,7.08
2023-12-27T03:44:54.610Z,7.04
2023-12-27T03:47:24.351Z,7.00
2023-12-27T03:49:52.839Z,6.95
2023-12-27T03:52:21.462Z,6.91
2023-12-27T03:54:50.685Z,6.88
2023-12-27T03:57:19.112Z,6.85
2023-12-27T03:59:47.590Z,6.81
2023-12-27T04:02:17.149Z,6.77
2023-12-27T04:04:48.253Z,6.72
2023-12-27T04:07:16.777Z,6.66
2023-12-27T04:09:45.459Z,6.58
2023-12-27T04:12:13.928Z,6.53
2023-12-27T04:14:42.177Z,6.48
2023-12-27T04:17:10.490Z,6.45
2023-12-27T04:19:38.920Z,6.43
2023-12-27T04:22:09.746Z,6.39
2023-12-27T04:24:38.207Z,6.36
2023-12-27T04:27:06.797Z,6.35
2023-12-27T04:29:35.253Z,6.35
2023-12-27T04:32:03.837Z,6.36
2023-12-27T04:34:32.160Z,6.35
2023-12-27T04:37:02.042Z,6.33
2023-12-27T04:39:30.739Z,6.30
2023-12-27T04:41:59.232Z,6.28
2023-12-27T04:44:27.780Z,6.24
2023-12-27T04:46:58.012Z,6.20
2023-12-27T04:49:26.602Z,6.20
2023-12-27T04:51:55.178Z,6.19
2023-12-27T04:54:24.716Z,6.16
2023-12-27T04:56:56.597Z,6.12
2023-12-27T04:59:25.342Z,6.09
2023-12-27T05:01:54.639Z,6.05
2023-12-27T05:04:24.729Z,6.03
2023-12-27T05:06:53.336Z,6.01
2023-12-27T05:09:21.841Z,5.98
2023-12-27T05:11:50.931Z,5.94
2023-12-27T05:14:19.096Z,5.89
2023-12-27T05:16:48.183Z,5.86
2023-12-27T05:19:18.194Z,5.85
2023-12-27T05:21:47.909Z,5.85
2023-12-27T05:24:16.405Z,5.83
2023-12-27T05:26:45.175Z,5.80
2023-12-27T05:29:13.754Z,5.76
2023-12-27T05:31:42.146Z,5.71
2023-12-27T05:34:10.768Z,5.66
2023-12-27T05:36:39.346Z,5.60
2023-12-27T05:39:07.941Z,5.57
2023-12-27T05:41:36.794Z,5.55
2023-12-27T05:44:05.258Z,5.53
2023-12-27T05:46:36.838Z,5.49
2023-12-27T05:49:05.430Z,5.47
2023-12-27T05:51:34.821Z,5.45
2023-12-27T05:54:04.525Z,5.47
2023-12-27T05:56:33.708Z,5.48
2023-12-27T05:59:02.284Z,5.50
2023-12-27T06:01:30.808Z,5.50
2023-12-27T06:04:00.756Z,5.50
2023-12-27T06:06:29.200Z,5.51
2023-12-27T06:08:57.678Z,5.51
2023-12-27T06:11:26.341Z,5.56
2023-12-27T06:13:54.817Z,5.62
2023-12-27T06:16:23.093Z,5.67
2023-12-27T06:18:56.055Z,5.70
2023-12-27T06:21:24.798Z,5.72
2023-12-27T06:23:53.179Z,5.76
2023-12-27T06:26:22.039Z,5.81
2023-12-27T06:28:50.423Z,5.89
2023-12-27T06:31:19.041Z,5.95
2023-12-27T06:33:47.618Z,6.03
2023-12-27T06:36:16.284Z,6.13
2023-12-27T06:38:47.733Z,6.72
2023-12-27T06:41:17.837Z,7.67
2023-12-27T06:43:46.620Z,8.49
2023-12-27T06:46:14.899Z,9.07
2023-12-27T06:48:43.458Z,9.53
2023-12-27T06:51:15.093Z,9.98
2023-12-27T06:53:43.518Z,10.46
2023-12-27T06:56:12.317Z,10.90
2023-12-27T06:58:40.531Z,11.30
2023-12-27T07:01:11.320Z,11.62
2023-12-27T07:03:39.997Z,11.84
2023-12-27T07:06:09.295Z,12.07
2023-12-27T07:08:37.890Z,12.32
2023-12-27T07:11:06.386Z,12.68
2023-12-27T07:13:34.966Z,13.15
2023-12-27T07:16:03.815Z,13.45
2023-12-27T07:18:32.409Z,13.56
2023-12-27T07:21:01.061Z,13.88
2023-12-27T07:23:29.494Z,14.08
2023-12-27T07:25:58.286Z,14.29
2023-12-27T07:28:27.551Z,14.54
2023-12-27T07:30:56.044Z,14.56
2023-12-27T07:33:24.788Z,14.51
2023-12-27T07:35:53.767Z,14.46
2023-12-27T07:38:22.447Z,14.77
2023-12-27T07:40:50.805Z,14.96
2023-12-27T07:43:22.058Z,15.03
2023-12-27T07:45:50.430Z,15.17
2023-12-27T07:48:19.359Z,15.22
2023-12-27T07:50:47.917Z,15.30
2023-12-27T07:53:16.389Z,15.50
2023-12-27T07:55:44.786Z,15.62
2023-12-27T07:58:13.244Z,15.87
2023-12-27T08:00:42.083Z,16.09
2023-12-27T08:03:10.732Z,16.25
2023-12-27T08:05:39.944Z,16.46
2023-12-27T08:08:08.495Z,16.61
2023-12-27T08:10:37.631Z,16.94
2023-12-27T08:13:09.470Z,17.02
2023-12-27T08:15:38.183Z,17.18
2023-12-27T08:18:06.858Z,17.49
2023-12-27T08:20:35.636Z,17.43
2023-12-27T08:23:04.569Z,17.83
2023-12-27T08:25:32.994Z,18.01
2023-12-27T08:28:02.493Z,18.34
2023-12-27T08:30:31.040Z,18.48
2023-12-27T08:33:01.627Z,18.63
2023-12-27T08:35:30.140Z,18.49
2023-12-27T08:37:58.819Z,18.81
2023-12-27T08:40:27.360Z,18.85
2023-12-27T08:42:56.604Z,18.50
2023-12-27T08:45:25.303Z,18.83
2023-12-27T08:47:53.669Z,18.95
2023-12-27T08:50:22.418Z,19.09
2023-12-27T08:52:50.793Z,19.22
2023-12-27T08:55:19.168Z,19.45
2023-12-27T08:57:47.711Z,19.67
2023-12-27T09:00:16.787Z,19.53
2023-12-27T09:02:46.277Z,19.95
2023-12-27T09:05:14.622Z,20.10
2023-12-27T09:07:43.106Z,20.10
2023-12-27T09:10:12.248Z,20.22
2023-12-27T09:12:40.864Z,20.08
2023-12-27T09:15:10.106Z,20.13
2023-12-27T09:17:38.603Z,20.14
2023-12-27T09:20:09.714Z,20.32
2023-12-27T09:22:38.273Z,20.63
2023-12-27T09:25:07.313Z,20.81
2023-12-27T09:27:35.688Z,20.92
2023-12-27T09:30:05.307Z,20.91
2023-12-27T09:32:33.902Z,21.29
2023-12-27T09:35:04.215Z,21.58
2023-12-27T09:37:32.992Z,21.75
2023-12-27T09:40:01.682Z,21.87
2023-12-27T09:42:34.420Z,21.83
2023-12-27T09:45:09.803Z,22.09
2023-12-27T09:47:41.292Z,22.06
2023-12-27T09:50:10.458Z,22.20
2023-12-27T09:52:41.156Z,22.32
2023-12-27T09:55:10.001Z,22.64
2023-12-27T09:57:39.099Z,23.15
2023-12-27T10:00:11.141Z,23.40
2023-12-27T10:02:43.522Z,23.25
2023-12-27T10:05:27.989Z,23.45
2023-12-27T10:07:58.277Z,23.54
2023-12-27T10:10:28.757Z,23.62
2023-12-27T10:13:04.029Z,23.41
2023-12-27T10:15:32.781Z,23.64
2023-12-27T10:18:01.544Z,23.66
2023-12-27T10:20:43.509Z,23.72
2023-12-27T10:23:12.021Z,23.75
2023-12-27T10:25:41.746Z,24.04
2023-12-27T10:28:10.610Z,24.06
2023-12-27T10:30:38.976Z,24.01
2023-12-27T10:33:08.013Z,23.72
2023-12-27T10:35:39.576Z,24.10
2023-12-27T10:38:08.597Z,23.80
2023-12-27T10:40:41.091Z,23.96
2023-12-27T10:43:10.290Z,24.11
2023-12-27T10:45:39.467Z,24.48
2023-12-27T10:48:11.417Z,24.56
2023-12-27T10:50:40.769Z,24.71
2023-12-27T10:53:10.679Z,24.57
2023-12-27T10:55:39.796Z,24.73
2023-12-27T10:58:17.389Z,24.89
2023-12-27T11:00:48.026Z,24.53
2023-12-27T11:03:19.978Z,24.86
2023-12-27T11:05:49.691Z,24.95
2023-12-27T11:08:21.855Z,24.92
2023-12-27T11:10:50.991Z,24.93
2023-12-27T11:13:25.639Z,25.11
2023-12-27T11:15:57.338Z,25.03
2023-12-27T11:18:26.828Z,24.67
2023-12-27T11:20:58.393Z,24.57
2023-12-27T11:23:27.367Z,24.60
2023-12-27T11:25:57.745Z,24.51
2023-12-27T11:28:26.663Z,24.34
2023-12-27T11:30:56.295Z,24.34
2023-12-27T11:33:28.369Z,24.22
2023-12-27T11:35:59.381Z,24.08
2023-12-27T11:38:27.982Z,24.08
2023-12-27T11:41:02.023Z,24.01
2023-12-27T11:43:49.329Z,24.12
2023-12-27T11:46:26.870Z,24.04
2023-12-27T11:48:56.045Z,23.81
2023-12-27T11:51:35.819Z,23.47
2023-12-27T11:54:07.675Z,23.76
2023-12-27T11:56:40.159Z,23.90
2023-12-27T11:59:12.693Z,24.07
2023-12-27T12:01:43.017Z,23.93
2023-12-27T12:04:38.952Z,23.97
2023-12-27T12:07:19.585Z,23.90
2023-12-27T12:09:48.405Z,23.69
2023-12-27T12:12:16.847Z,23.91
2023-12-27T12:14:46.275Z,23.98
2023-12-27T12:17:15.348Z,23.99
2023-12-27T12:19:43.932Z,24.04
2023-12-27T12:22:15.322Z,23.92
2023-12-27T12:24:47.799Z,23.68
2023-12-27T12:27:17.994Z,23.71
2023-12-27T12:29:46.599Z,23.88
2023-12-27T12:32:16.459Z,23.74
2023-12-27T12:34:45.508Z,23.77
2023-12-27T12:37:16.101Z,23.60
2023-12-27T12:39:48.055Z,23.48
2023-12-27T12:42:16.762Z,23.50
2023-12-27T12:44:46.261Z,23.30
2023-12-27T12:47:16.300Z,23.18
2023-12-27T12:49:44.983Z,23.25
2023-12-27T12:52:13.359Z,22.88
2023-12-27T12:54:42.165Z,22.65
2023-12-27T12:57:10.905Z,22.48
2023-12-27T12:59:42.784Z,22.65
2023-12-27T13:02:11.880Z,22.72
2023-12-27T13:04:40.623Z,23.09
2023-12-27T13:07:09.237Z,23.13
2023-12-27T13:10:01.819Z,23.32
2023-12-27T13:12:31.723Z,23.28
2023-12-27T13:15:00.251Z,23.21
2023-12-27T13:17:29.020Z,23.18
2023-12-27T13:19:57.741Z,23.05
2023-12-27T13:22:26.196Z,22.87
2023-12-27T13:24:55.039Z,22.82
2023-12-27T13:27:23.510Z,22.82
2023-12-27T13:29:51.998Z,22.68
2023-12-27T13:32:21.004Z,22.71
2023-12-27T13:34:49.413Z,22.53
2023-12-27T13:37:20.489Z,22.29
2023-12-27T13:39:49.571Z,22.21
2023-12-27T13:42:17.889Z,21.95
2023-12-27T13:44:46.263Z,21.29
2023-12-27T13:47:14.631Z,20.71
2023-12-27T13:49:44.841Z,20.39
2023-12-27T13:52:13.734Z,20.33
2023-12-27T13:54:42.356Z,20.26
2023-12-27T13:57:10.706Z,20.05
2023-12-27T13:59:41.044Z,19.93
2023-12-27T14:02:09.603Z,19.80
2023-12-27T14:04:38.334Z,19.69
2023-12-27T14:07:06.717Z,19.43
2023-12-27T14:09:35.930Z,19.14
2023-12-27T14:12:04.671Z,18.85
2023-12-27T14:14:33.141Z,18.36
2023-12-27T14:17:01.544Z,17.83
2023-12-27T14:19:33.076Z,17.43
2023-12-27T14:22:01.868Z,16.97
2023-12-27T14:24:32.957Z,16.50
2023-12-27T14:27:01.315Z,16.09
2023-12-27T14:29:30.597Z,15.48
2023-12-27T14:31:59.169Z,14.98
2023-12-27T14:34:27.954Z,14.46
2023-12-27T14:36:56.446Z,14.01
2023-12-27T14:39:27.386Z,13.54
2023-12-27T14:41:56.169Z,13.17
2023-12-27T14:44:24.651Z,12.83
2023-12-27T14:46:54.931Z,12.46
2023-12-27T14:49:23.385Z,12.20
2023-12-27T14:51:51.948Z,11.96
2023-12-27T14:54:24.068Z,11.72
2023-12-27T14:56:54.224Z,11.51
2023-12-27T14:59:24.104Z,11.27
2023-12-27T15:01:54.333Z,11.07
2023-12-27T15:04:24.572Z,10.86
2023-12-27T15:06:53.199Z,10.69
2023-12-27T15:09:24.220Z,10.54
2023-12-27T15:11:53.001Z,10.39
2023-12-27T15:14:22.115Z,10.25
2023-12-27T15:16:51.943Z,10.11
2023-12-27T15:19:20.411Z,9.98
2023-12-27T15:21:49.182Z,9.83
2023-12-27T15:24:17.787Z,9.67
2023-12-27T15:26:46.246Z,9.51
2023-12-27T15:29:15.549Z,9.39
2023-12-27T15:31:45.413Z,9.33
2023-12-27T15:34:14.477Z,9.26
2023-12-27T15:36:43.014Z,9.20
2023-12-27T15:39:11.484Z,9.11
2023-12-27T15:41:39.902Z,9.04
2023-12-27T15:44:08.903Z,9.00
2023-12-27T15:46:37.487Z,8.94
2023-12-27T15:49:07.706Z,8.93
2023-12-27T15:51:37.407Z,8.91
2023-12-27T15:54:07.855Z,8.88
2023-12-27T15:56:46.416Z,8.86
2023-12-27T15:59:15.169Z,8.82
2023-12-27T16:01:46.553Z,8.73
2023-12-27T16:04:19.402Z,8.65
2023-12-27T16:06:48.856Z,8.61
2023-12-27T16:09:18.225Z,8.53
2023-12-27T16:11:46.757Z,8.42
2023-12-27T16:14:15.133Z,8.32
2023-12-27T16:16:44.274Z,8.23
2023-12-27T16:19:14.035Z,8.15
2023-12-27T16:21:43.820Z,8.04
2023-12-27T16:24:12.580Z,7.93
2023-12-27T16:26:40.940Z,7.87
2023-12-27T16:29:09.307Z,7.80
2023-12-27T16:31:37.995Z,7.74
2023-12-27T16:34:06.877Z,7.66
2023-12-27T16:36:35.395Z,7.61
2023-12-27T16:39:03.911Z,7.57
2023-12-27T16:41:32.529Z,7.53
2023-12-27T16:44:01.160Z,7.54
2023-12-27T16:46:29.696Z,7.52
2023-12-27T16:49:00.145Z,7.49
2023-12-27T16:51:30.328Z,7.43
2023-12-27T16:53:59.769Z,7.39
2023-12-27T16:56:29.270Z,7.33
2023-12-27T16:58:57.708Z,7.27
2023-12-27T17:01:26.136Z,7.24
2023-12-27T17:03:54.640Z,7.19
2023-12-27T17:06:24.446Z,7.12
2023-12-27T17:08:52.985Z,7.07
2023-12-27T17:11:21.375Z,7.04
2023-12-27T17:13:50.779Z,7.01
2023-12-27T17:16:19.375Z,7.00
2023-12-27T17:18:47.911Z,7.00
2023-12-27T17:21:19.059Z,7.00
2023-12-27T17:23:49.009Z,6.97
2023-12-27T17:26:17.456Z,6.92
2023-12-27T17:28:45.976Z,6.90
2023-12-27T17:31:14.439Z,6.86
2023-12-27T17:33:43.409Z,6.83
2023-12-27T17:36:12.145Z,6.83
2023-12-27T17:38:40.622Z,6.80
2023-12-27T17:41:09.390Z,6.75
2023-12-27T17:43:41.514Z,6.67
2023-12-27T17:46:13.532Z,6.59
2023-12-27T17:48:45.735Z,6.50
2023-12-27T17:51:14.303Z,6.42
2023-12-27T17:53:43.389Z,6.39
2023-12-27T17:56:11.959Z,6.35
2023-12-27T17:58:40.773Z,6.31
2023-12-27T18:01:09.519Z,6.25
2023-12-27T18:03:38.253Z,6.20
2023-12-27T18:06:08.356Z,6.15
2023-12-27T18:08:36.810Z,6.11
2023-12-27T18:11:05.355Z,6.07
2023-12-27T18:13:35.142Z,6.06
2023-12-27T18:16:05.738Z,6.03
2023-12-27T18:18:34.490Z,6.01
2023-12-27T18:21:05.591Z,5.97
2023-12-27T18:23:37.423Z,5.95
2023-12-27T18:26:05.802Z,5.96
2023-12-27T18:28:34.254Z,5.95
2023-12-27T18:31:02.633Z,5.95
2023-12-27T18:33:31.993Z,5.96
2023-12-27T18:36:01.152Z,5.95
2023-12-27T18:38:29.647Z,5.91
2023-12-27T18:40:58.118Z,5.85
2023-12-27T18:43:26.428Z,5.79
2023-12-27T18:45:57.167Z,5.71
2023-12-27T18:48:25.751Z,5.63
2023-12-27T18:50:54.330Z,5.56
2023-12-27T18:53:22.785Z,5.52
2023-12-27T18:55:51.153Z,5.48
2023-12-27T18:58:20.152Z,5.46
2023-12-27T19:00:49.133Z,5.40
2023-12-27T19:03:18.136Z,5.35
2023-12-27T19:05:48.215Z,5.28
2023-12-27T19:08:16.742Z,5.19
2023-12-27T19:10:45.737Z,5.08
2023-12-27T19:13:14.123Z,4.98
2023-12-27T19:15:42.495Z,4.92
2023-12-27T19:18:12.723Z,4.86
2023-12-27T19:20:41.507Z,4.84
2023-12-27T19:23:10.066Z,4.81
2023-12-27T19:25:39.394Z,4.80
2023-12-27T19:28:07.866Z,4.80
2023-12-27T19:30:36.459Z,4.79
2023-12-27T19:33:05.847Z,4.77
2023-12-27T19:35:34.538Z,4.75
2023-12-27T19:38:03.122Z,4.78
2023-12-27T19:40:31.604Z,4.79
2023-12-27T19:43:00.568Z,4.78
2023-12-27T19:45:29.626Z,4.75
2023-12-27T19:47:58.595Z,4.71
2023-12-27T19:50:27.368Z,4.67
2023-12-27T19:52:55.645Z,4.60
2023-12-27T19:55:24.234Z,4.52
2023-12-27T19:57:52.656Z,4.44
2023-12-27T20:00:21.300Z,4.37
2023-12-27T20:02:50.092Z,4.33
2023-12-27T20:05:18.640Z,4.27
2023-12-27T20:07:46.988Z,4.22
2023-12-27T20:10:15.535Z,4.18
2023-12-27T20:12:44.083Z,4.15
2023-12-27T20:15:12.857Z,4.11
2023-12-27T20:17:41.386Z,4.07
2023-12-27T20:20:10.384Z,4.03
2023-12-27T20:22:38.871Z,3.99
2023-12-27T20:25:08.081Z,3.98
2023-12-27T20:27:36.876Z,3.96
2023-12-27T20:30:06.622Z,3.94
2023-12-27T20:32:35.782Z,3.91
2023-12-27T20:35:05.369Z,3.90
2023-12-27T20:37:33.900Z,3.91
2023-12-27T20:40:02.547Z,3.90
2023-12-27T20:42:31.173Z,3.89
2023-12-27T20:44:59.906Z,3.86
2023-12-27T20:47:28.412Z,3.86
2023-12-27T20:49:57.138Z,3.87
2023-12-27T20:52:26.109Z,3.89
2023-12-27T20:54:55.276Z,3.88
2023-12-27T20:57:24.413Z,3.88
2023-12-27T20:59:52.972Z,3.88
2023-12-27T21:02:21.424Z,3.88
2023-12-27T21:04:50.000Z,3.85
2023-12-27T21:07:19.225Z,3.86
2023-12-27T21:09:47.861Z,3.90
2023-12-27T21:12:16.802Z,3.91
2023-12-27T21:14:46.383Z,3.90
2023-12-27T21:17:15.499Z,3.86
2023-12-27T21:19:44.713Z,3.81
2023-12-27T21:22:13.502Z,3.75
2023-12-27T21:24:42.082Z,3.69
2023-12-27T21:27:10.761Z,3.62
2023-12-27T21:29:39.448Z,3.58
2023-12-27T21:32:07.914Z,3.54
2023-12-27T21:34:36.334Z,3.49
2023-12-27T21:37:05.564Z,3.44
2023-12-27T21:39:34.654Z,3.40
2023-12-27T21:42:04.405Z,3.35
2023-12-27T21:44:34.215Z,3.29
2023-12-27T21:47:02.988Z,3.24
2023-12-27T21:49:31.519Z,3.23
2023-12-27T21:52:00.020Z,3.25
2023-12-27T21:54:28.677Z,3.27
2023-12-27T21:56:57.356Z,3.25
2023-12-27T21:59:25.799Z,3.21
2023-12-27T22:01:54.366Z,3.17
2023-12-27T22:04:22.737Z,3.12
2023-12-27T22:06:51.345Z,3.10
2023-12-27T22:09:20.074Z,3.10
2023-12-27T22:11:48.634Z,3.12
2023-12-27T22:14:18.437Z,3.14
2023-12-27T22:16:50.126Z,3.15
2023-12-27T22:19:18.936Z,3.14
2023-12-27T22:21:50.533Z,3.13
2023-12-27T22:24:19.045Z,3.11
2023-12-27T22:26:47.521Z,3.09
2023-12-27T22:29:17.124Z,3.11
2023-12-27T22:31:45.687Z,3.11
2023-12-27T22:34:15.813Z,3.07
2023-12-27T22:36:44.470Z,3.01
2023-12-27T22:39:13.129Z,2.96
2023-12-27T22:41:41.575Z,2.94
2023-12-27T22:44:10.142Z,2.93
2023-12-27T22:46:38.758Z,2.95
2023-12-27T22:49:08.373Z,2.96
2023-12-27T22:51:37.654Z,2.92
2023-12-27T22:54:06.636Z,2.84
2023-12-27T22:56:35.221Z,2.78
2023-12-27T22:59:03.606Z,2.73
2023-12-27T23:01:32.330Z,2.67
2023-12-27T23:04:00.910Z,2.65
2023-12-27T23:06:29.433Z,2.61
2023-12-27T23:09:00.137Z,2.55
2023-12-27T23:11:28.462Z,2.51
2023-12-27T23:13:56.916Z,2.49
2023-12-27T23:16:25.834Z,2.45
2023-12-27T23:18:54.542Z,2.42
2023-12-27T23:21:23.102Z,2.39
2023-12-27T23:23:51.688Z,2.36
2023-12-27T23:26:20.064Z,2.30
2023-12-27T23:28:49.875Z,2.26
2023-12-27T23:31:18.359Z,2.22
2023-12-27T23:33:47.367Z,2.19
2023-12-27T23:36:15.852Z,2.18
2023-12-27T23:38:44.137Z,2.19
2023-12-27T23:41:12.580Z,2.20
2023-12-27T23:43:42.956Z,2.18
2023-12-27T23:46:11.389Z,2.14
2023-12-27T23:48:39.998Z,2.14
2023-12-27T23:51:08.870Z,2.12
2023-12-27T23:53:37.566Z,2.09
2023-12-27T23:56:06.252Z,2.06
2023-12-27T23:58:34.713Z,2.04
